Time;durP1;ratioP1;P1;durP2;ratioP2;P2;SDS_P1;SDS_P2;PMS_P1;PMS_P2;Temp;Humidity;BMP_temperature;BMP_pressure;BME280_temperature;BME280_humidity;BME280_pressure;Samples;Min_cycle;Max_cycle;Signal;HPM_P1;HPM_P2
2021/03/07 00:00:55;;;;;;;17.65;9.15;;;;;;;-0.18;47.73;98808.94;10024960;29;20052;-80
2021/03/07 00:06:15;;;;;;;13.02;8.13;;;;;;;-0.14;47.84;98808.69;9961113;29;20053;-79
2021/03/07 00:11:35;;;;;;;11.13;7.28;;;;;;;-0.12;47.79;98808.94;9960695;29;20046;-79
2021/03/07 00:16:55;;;;;;;12.15;7.10;;;;;;;-0.12;48.34;98806.19;9973808;29;20435;-79
2021/03/07 00:22:15;;;;;;;13.48;6.63;;;;;;;-0.15;48.14;98804.44;9973359;29;20063;-80
2021/03/07 00:27:36;;;;;;;9.90;6.53;;;;;;;-0.20;48.30;98789.44;9986252;29;20047;-79
2021/03/07 00:32:55;;;;;;;12.15;6.57;;;;;;;-0.19;48.53;98792.94;9985791;29;20047;-79
2021/03/07 00:38:15;;;;;;;10.63;6.38;;;;;;;-0.19;48.43;98785.47;9985315;29;20047;-79
2021/03/07 00:43:35;;;;;;;11.50;5.82;;;;;;;-0.19;48.69;98779.22;9998563;29;20074;-79
2021/03/07 00:48:54;;;;;;;9.73;5.38;;;;;;;-0.19;49.05;98773.72;9997981;29;20053;-79
2021/03/07 00:54:14;;;;;;;12.52;5.38;;;;;;;-0.22;49.54;98763.75;9973026;29;20469;-80
2021/03/07 00:59:34;;;;;;;8.13;5.43;;;;;;;-0.23;49.07;98751.28;9985291;29;20050;-80
2021/03/07 01:04:54;;;;;;;11.25;5.80;;;;;;;-0.33;48.92;98748.78;9997828;29;20058;-79
2021/03/07 01:10:18;;;;;;;8.55;5.35;;;;;;;-0.39;50.08;98741.78;9985497;29;20390;-79
2021/03/07 01:15:39;;;;;;;8.05;5.32;;;;;;;-0.37;49.70;98740.03;9972013;29;20046;-79
2021/03/07 01:20:58;;;;;;;9.68;5.93;;;;;;;-0.41;50.09;98733.28;9984056;29;20049;-79
2021/03/07 01:26:19;;;;;;;9.43;5.68;;;;;;;-0.42;50.31;98729.06;9959084;29;20050;-79
2021/03/07 01:31:39;;;;;;;7.93;5.88;;;;;;;-0.44;50.50;98720.56;9983817;29;20046;-79
2021/03/07 01:36:59;;;;;;;8.85;5.60;;;;;;;-0.61;50.46;98715.06;9983747;29;20119;-78
2021/03/07 01:42:19;;;;;;;7.82;5.65;;;;;;;-0.68;50.80;98708.06;9971379;29;20046;-80
2021/03/07 01:47:42;;;;;;;8.45;5.43;;;;;;;-0.75;51.65;98686.63;9983605;29;20054;-79
2021/03/07 01:53:03;;;;;;;10.50;6.53;;;;;;;-0.76;51.64;98695.34;9982087;29;20380;-79
2021/03/07 01:58:28;;;;;;;9.77;6.07;;;;;;;-0.79;52.01;98683.34;9958277;29;20054;-79
2021/03/07 02:03:52;;;;;;;8.60;5.63;;;;;;;-0.79;51.57;98682.59;9982664;29;20399;-79
2021/03/07 02:09:12;;;;;;;9.40;6.20;;;;;;;-0.86;51.99;98672.88;9970307;29;20050;-79
2021/03/07 02:14:31;;;;;;;11.50;6.20;;;;;;;-0.98;51.91;98677.56;9969834;29;20057;-79
2021/03/07 02:19:52;;;;;;;11.00;6.03;;;;;;;-0.98;51.48;98669.34;9957335;29;20482;-79
2021/03/07 02:25:13;;;;;;;10.02;6.15;;;;;;;-1.03;51.85;98664.63;9982915;29;20050;-79
2021/03/07 02:30:33;;;;;;;10.38;6.10;;;;;;;-1.06;52.38;98656.63;9995048;29;20050;-79
2021/03/07 02:36:11;;;;;;;11.40;5.85;;;;;;;-1.05;52.18;98661.63;9969243;29;20514;-79
2021/03/07 02:41:31;;;;;;;10.18;6.32;;;;;;;-1.06;52.79;98649.16;9969586;29;20099;-79
2021/03/07 02:46:51;;;;;;;11.30;6.45;;;;;;;-1.06;53.14;98646.44;9968965;29;20058;-80
2021/03/07 02:52:12;;;;;;;10.60;5.97;;;;;;;-1.07;53.02;98639.41;9969719;29;20057;-79
2021/03/07 02:57:32;;;;;;;8.80;5.88;;;;;;;-1.10;53.11;98637.69;9982227;29;20490;-79
2021/03/07 03:02:52;;;;;;;11.80;6.40;;;;;;;-1.13;52.81;98643.41;9958235;29;20085;-79
2021/03/07 03:08:13;;;;;;;10.35;7.00;;;;;;;-1.09;52.98;98638.44;9988510;29;20482;-80
2021/03/07 03:13:35;;;;;;;9.15;6.82;;;;;;;-1.10;53.23;98634.19;9988541;29;20383;-79
2021/03/07 03:18:54;;;;;;;9.98;6.88;;;;;;;-1.10;53.27;98637.69;9987776;29;20057;-79
2021/03/07 03:24:14;;;;;;;14.75;7.28;;;;;;;-1.09;53.33;98635.69;9975808;29;20056;-80
2021/03/07 03:29:34;;;;;;;10.75;6.93;;;;;;;-1.11;53.33;98638.94;9975067;29;20202;-79
2021/03/07 03:34:54;;;;;;;8.27;7.18;;;;;;;-1.16;53.93;98631.44;9975042;29;20057;-79
2021/03/07 03:40:23;;;;;;;10.32;7.32;;;;;;;-1.22;54.05;98631.44;9987489;29;20054;-79
2021/03/07 03:45:43;;;;;;;9.48;7.00;;;;;;;-1.28;53.81;98621.69;9974409;29;20055;-79
2021/03/07 03:51:03;;;;;;;10.60;7.55;;;;;;;-1.35;54.37;98616.66;9974359;29;20490;-80
2021/03/07 03:56:23;;;;;;;9.65;7.13;;;;;;;-1.45;54.47;98616.91;9999757;29;20049;-79
2021/03/07 04:01:43;;;;;;;8.98;6.57;;;;;;;-1.50;54.82;98603.94;9972781;29;20060;-80
2021/03/07 04:07:03;;;;;;;9.57;7.40;;;;;;;-1.55;54.64;98604.66;9971870;29;20051;-79
2021/03/07 04:12:23;;;;;;;11.40;7.78;;;;;;;-1.59;54.99;98606.88;9972891;29;20502;-79
2021/03/07 04:17:43;;;;;;;13.45;8.50;;;;;;;-1.60;55.21;98605.38;9972954;29;20050;-79
2021/03/07 04:23:03;;;;;;;11.30;7.35;;;;;;;-1.61;55.15;98603.91;9973476;29;20054;-79
2021/03/07 04:28:23;;;;;;;10.05;7.88;;;;;;;-1.65;55.08;98600.63;9999009;29;20539;-79
2021/03/07 04:33:43;;;;;;;11.88;7.72;;;;;;;-1.68;54.89;98587.94;9985992;29;20058;-79
2021/03/07 04:39:04;;;;;;;10.52;8.05;;;;;;;-1.73;55.54;98577.72;9998569;29;20050;-79
2021/03/07 04:44:24;;;;;;;11.05;7.50;;;;;;;-1.76;55.54;98584.16;9971939;29;20054;-79
2021/03/07 04:49:44;;;;;;;10.73;8.30;;;;;;;-1.74;55.91;98563.28;9960537;29;20058;-80
2021/03/07 04:55:05;;;;;;;13.73;8.57;;;;;;;-1.72;55.90;98568.25;9999121;29;20042;-80
2021/03/07 05:00:25;;;;;;;12.65;8.57;;;;;;;-1.75;55.65;98561.00;9960626;29;20054;-80
2021/03/07 05:05:44;;;;;;;13.70;9.35;;;;;;;-1.78;56.27;98546.31;9998106;29;20492;-80
2021/03/07 05:11:04;;;;;;;18.92;11.45;;;;;;;-1.79;55.77;98538.63;9996169;29;20058;-80
2021/03/07 05:16:24;;;;;;;26.17;13.85;;;;;;;-1.82;56.13;98536.88;9972557;29;20546;-79
2021/03/07 05:21:44;;;;;;;19.98;11.90;;;;;;;-1.83;55.81;98527.91;9984589;29;20061;-80
2021/03/07 05:27:07;;;;;;;23.42;13.32;;;;;;;-1.87;56.55;98527.38;9959085;29;20043;-80
2021/03/07 05:32:27;;;;;;;20.00;11.70;;;;;;;-1.89;56.14;98512.69;9971788;29;20050;-80
2021/03/07 05:37:47;;;;;;;18.38;10.13;;;;;;;-1.85;56.57;98508.47;9984238;29;20050;-79
2021/03/07 05:43:07;;;;;;;17.65;10.85;;;;;;;-1.43;56.79;98503.38;9958506;29;20063;-79
2021/03/07 05:48:28;;;;;;;17.65;9.88;;;;;;;0.19;57.70;98490.22;9995638;29;20110;-79
2021/03/07 05:53:51;;;;;;;13.50;9.05;;;;;;;2.03;57.17;98486.41;9970459;29;20464;-79
2021/03/07 05:59:11;;;;;;;16.02;9.15;;;;;;;3.62;56.10;98480.25;9984324;29;20047;-80
2021/03/07 06:04:31;;;;;;;14.43;8.15;;;;;;;4.43;53.30;98478.91;9971037;29;20069;-79
2021/03/07 06:10:20;;;;;;;12.98;8.73;;;;;;;7.23;53.62;98480.44;9984307;29;20069;-78
2021/03/07 06:15:44;;;;;;;12.80;8.05;;;;;;;8.28;50.45;98477.31;9972569;29;20051;-79
2021/03/07 06:21:04;;;;;;;11.68;7.72;;;;;;;9.15;49.24;98470.16;9983282;29;20050;-79
2021/03/07 06:26:26;;;;;;;12.88;8.57;;;;;;;10.77;46.87;98471.47;9972216;29;20094;-79
2021/03/07 06:31:58;;;;;;;11.55;8.45;;;;;;;12.74;45.16;98456.63;9996201;29;20055;-78
2021/03/07 06:37:17;;;;;;;11.07;7.70;;;;;;;14.97;41.37;98456.66;9985928;29;20046;-79
2021/03/07 06:42:43;;;;;;;11.65;7.85;;;;;;;16.38;37.10;98440.28;9991926;29;20046;-79
2021/03/07 06:48:06;;;;;;;10.77;7.57;;;;;;;17.31;34.11;98455.91;9999450;29;20502;-79
2021/03/07 06:53:39;;;;;;;11.53;7.33;;;;;;;16.78;30.14;98441.06;9987999;29;20047;-80
2021/03/07 06:59:16;;;;;;;10.90;8.10;;;;;;;18.39;29.66;98452.84;10001261;29;20383;-79
2021/03/07 07:04:42;;;;;;;9.45;7.15;;;;;;;21.85;26.08;98452.25;9975488;29;20119;-79
2021/03/07 07:10:07;;;;;;;8.95;6.75;;;;;;;23.18;21.40;98455.09;9987607;29;20055;-78
2021/03/07 07:15:27;;;;;;;9.85;6.18;;;;;;;22.81;20.24;98450.41;9974789;29;20071;-79
2021/03/07 07:20:46;;;;;;;8.82;6.53;;;;;;;21.39;19.41;98446.38;9987097;29;20051;-79
2021/03/07 07:26:07;;;;;;;7.05;6.20;;;;;;;21.15;18.94;98443.38;9987371;29;20397;-78
2021/03/07 07:32:15;;;;;;;10.48;5.70;;;;;;;21.77;17.01;98449.13;9999924;29;20130;-78
2021/03/07 07:37:40;;;;;;;7.55;5.85;;;;;;;24.96;14.99;98446.09;9996174;29;20402;-80
2021/03/07 07:43:00;;;;;;;7.18;5.57;;;;;;;30.16;12.29;98447.81;9985952;29;20093;-80
2021/03/07 07:48:35;;;;;;;9.13;5.53;;;;;;;34.85;9.77;98438.72;9985258;29;20058;-79
2021/03/07 07:53:55;;;;;;;6.88;5.57;;;;;;;39.15;7.57;98436.50;9986126;29;20111;-78
2021/03/07 07:59:15;;;;;;;7.32;5.68;;;;;;;41.16;5.45;98428.31;9999153;29;20115;-79
2021/03/07 08:04:35;;;;;;;7.07;4.53;;;;;;;42.29;4.75;98427.38;9985627;29;20525;-79
2021/03/07 08:09:55;;;;;;;5.43;3.85;;;;;;;44.44;3.50;98422.38;9998668;29;20069;-79
2021/03/07 08:15:27;;;;;;;4.63;4.00;;;;;;;45.04;2.96;98412.13;9998762;29;20046;-79
2021/03/07 08:20:46;;;;;;;5.57;3.92;;;;;;;46.03;2.92;98410.25;9998178;29;20051;-78
2021/03/07 08:26:06;;;;;;;5.60;3.70;;;;;;;46.52;2.40;98398.16;9998169;29;20046;-80
2021/03/07 08:31:29;;;;;;;4.17;3.07;;;;;;;47.82;1.85;98400.75;9997776;29;20046;-78
2021/03/07 08:36:54;;;;;;;4.07;2.92;;;;;;;48.01;1.81;98396.44;9985975;29;20047;-78
2021/03/07 08:42:27;;;;;;;7.97;4.53;;;;;;;48.84;1.78;98396.00;9984914;29;20086;-79
2021/03/07 08:47:53;;;;;;;5.30;3.00;;;;;;;49.78;0.87;98395.13;9998836;29;20115;-79
2021/03/07 08:53:23;;;;;;;4.43;3.20;;;;;;;50.95;0.58;98386.69;10035138;29;20107;-79
2021/03/07 08:58:46;;;;;;;2.72;2.45;;;;;;;50.71;0.05;98388.13;10021323;29;20050;-77
2021/03/07 09:04:10;;;;;;;3.75;3.15;;;;;;;49.98;0.79;98374.94;10034035;29;20081;-79
2021/03/07 09:09:30;;;;;;;4.00;3.20;;;;;;;51.45;0.50;98377.88;10034094;29;20119;-78
2021/03/07 09:14:50;;;;;;;4.63;3.35;;;;;;;52.33;0.33;98369.84;10021202;29;20102;-80
2021/03/07 09:20:10;;;;;;;4.00;3.58;;;;;;;53.25;0.00;98367.06;10021281;29;20194;-79
2021/03/07 09:25:29;;;;;;;5.78;4.03;;;;;;;54.14;0.00;98357.44;10008081;29;20057;-79
2021/03/07 09:30:57;;;;;;;5.50;4.57;;;;;;;54.17;0.00;98355.66;10020869;29;20068;-78
2021/03/07 09:36:19;;;;;;;5.20;3.80;;;;;;;52.79;0.00;98334.22;10008244;29;20102;-78
2021/03/07 09:41:47;;;;;;;6.32;4.32;;;;;;;53.68;0.00;98334.41;10033316;29;20057;-77
2021/03/07 09:47:07;;;;;;;4.45;4.05;;;;;;;54.30;0.00;98319.94;10020028;29;20409;-79
2021/03/07 09:52:27;;;;;;;4.10;3.47;;;;;;;53.43;0.00;98315.25;10033084;29;20054;-78
2021/03/07 09:58:00;;;;;;;4.03;3.58;;;;;;;53.33;0.00;98313.28;10020320;29;20122;-79
2021/03/07 10:03:25;;;;;;;4.03;3.63;;;;;;;52.31;0.00;98311.19;10020192;29;20062;-79
2021/03/07 10:09:04;;;;;;;4.88;3.50;;;;;;;51.92;0.00;98307.44;10019888;29;20042;-78
2021/03/07 10:14:26;;;;;;;5.38;3.83;;;;;;;51.26;0.18;98294.16;10006457;29;20058;-80
2021/03/07 10:19:46;;;;;;;4.43;3.88;;;;;;;51.50;0.00;98288.97;10032442;29;20073;-80
2021/03/07 10:25:07;;;;;;;3.70;3.30;;;;;;;51.69;0.00;98282.03;10011583;29;20039;-77
2021/03/07 10:30:39;;;;;;;3.53;3.08;;;;;;;50.62;0.19;98273.00;9918751;29;20043;-80
2021/03/07 10:36:10;;;;;;;3.85;2.40;;;;;;;49.40;0.08;98261.91;9945716;29;20043;-89
2021/03/07 10:41:31;;;;;;;3.38;2.35;;;;;;;43.39;0.89;98256.47;9944144;29;20050;-82
2021/03/07 10:46:51;;;;;;;4.75;3.00;;;;;;;36.45;3.44;98262.34;9931206;29;20475;-80
2021/03/07 10:52:10;;;;;;;4.55;3.67;;;;;;;30.93;5.88;98257.56;9931011;29;20047;-83
2021/03/07 10:57:30;;;;;;;5.20;3.80;;;;;;;27.59;6.85;98251.22;9944654;29;20047;-79
2021/03/07 11:02:52;;;;;;;5.83;3.93;;;;;;;26.49;8.04;98247.22;9943892;29;20067;-78
2021/03/07 11:08:11;;;;;;;6.22;4.30;;;;;;;25.05;8.87;98242.84;9943888;29;20483;-78
2021/03/07 11:13:32;;;;;;;6.80;4.63;;;;;;;24.46;9.69;98240.94;9943543;29;20058;-78
2021/03/07 11:18:52;;;;;;;5.78;4.80;;;;;;;23.50;10.25;98224.50;9930950;29;20549;-77
2021/03/07 11:24:12;;;;;;;7.80;4.82;;;;;;;22.11;11.35;98208.69;9945763;29;20058;-79
2021/03/07 11:29:32;;;;;;;7.00;4.90;;;;;;;20.82;11.84;98206.66;9949888;29;20047;-79
2021/03/07 11:34:52;;;;;;;7.82;5.32;;;;;;;20.26;12.49;98188.31;9949608;29;20081;-77
2021/03/07 11:40:11;;;;;;;8.32;5.45;;;;;;;19.85;13.29;98200.97;9949609;29;20062;-78
2021/03/07 11:45:31;;;;;;;9.00;5.53;;;;;;;19.43;13.56;98180.22;9936913;29;20050;-79
2021/03/07 11:50:51;;;;;;;6.63;4.95;;;;;;;18.85;14.23;98177.16;9949187;29;20047;-75
2021/03/07 11:56:11;;;;;;;9.93;5.20;;;;;;;18.30;14.87;98157.09;9936494;29;20119;-75
2021/03/07 12:01:31;;;;;;;7.40;4.93;;;;;;;17.87;15.22;98163.69;9961212;29;20499;-75
2021/03/07 12:06:51;;;;;;;7.15;5.07;;;;;;;17.71;15.70;98152.38;9966072;29;20069;-74
2021/03/07 12:12:11;;;;;;;8.05;4.82;;;;;;;17.14;16.46;98148.94;9965762;29;20042;-75
2021/03/07 12:17:31;;;;;;;6.55;4.57;;;;;;;17.05;16.48;98149.91;9981508;29;20106;-76
2021/03/07 12:22:51;;;;;;;6.30;4.50;;;;;;;16.64;17.39;98128.16;9982984;29;20042;-75
2021/03/07 12:28:10;;;;;;;6.38;4.22;;;;;;;16.12;17.23;98117.78;9967929;29;20043;-75
2021/03/07 12:33:31;;;;;;;6.65;4.35;;;;;;;16.19;18.26;98120.25;9980768;29;20039;-75
2021/03/07 12:38:52;;;;;;;7.80;4.38;;;;;;;15.75;18.01;98101.78;9967093;29;20043;-76
2021/03/07 12:44:12;;;;;;;5.72;4.15;;;;;;;14.99;18.97;98099.75;9955083;29;20042;-75
2021/03/07 12:49:33;;;;;;;6.97;4.43;;;;;;;14.64;19.51;98077.41;9967602;29;20058;-74
2021/03/07 12:54:52;;;;;;;7.18;4.45;;;;;;;14.33;20.71;98066.47;9942422;29;20046;-74
2021/03/07 13:00:14;;;;;;;5.25;4.00;;;;;;;14.06;20.34;98066.28;9969095;29;20100;-75
2021/03/07 13:05:33;;;;;;;6.03;4.50;;;;;;;13.86;21.09;98051.78;9969225;29;20479;-75
2021/03/07 13:10:54;;;;;;;5.55;3.78;;;;;;;13.78;20.65;98043.63;9967366;29;20050;-75
2021/03/07 13:16:14;;;;;;;7.85;4.28;;;;;;;13.69;21.26;98033.97;9981322;29;20043;-75
2021/03/07 13:21:33;;;;;;;5.80;4.40;;;;;;;13.70;21.16;98031.91;9955760;29;20050;-75
2021/03/07 13:26:53;;;;;;;6.20;3.95;;;;;;;13.40;21.19;98011.91;9973745;29;20053;-74
2021/03/07 13:32:13;;;;;;;5.38;4.05;;;;;;;13.07;21.36;98011.25;9996240;29;20099;-74
2021/03/07 13:37:33;;;;;;;6.03;3.90;;;;;;;13.40;21.84;98003.50;9992042;29;20390;-75
2021/03/07 13:42:57;;;;;;;7.35;4.63;;;;;;;13.53;21.81;97998.63;9983261;29;20095;-76
2021/03/07 13:48:17;;;;;;;5.28;3.90;;;;;;;13.27;21.76;97992.91;9972644;29;20054;-75
2021/03/07 13:53:37;;;;;;;4.95;3.60;;;;;;;13.27;22.27;97980.94;9974947;29;20043;-74
2021/03/07 13:58:57;;;;;;;5.38;3.78;;;;;;;13.13;22.38;97980.81;9973121;29;20058;-81
2021/03/07 14:04:16;;;;;;;7.38;4.43;;;;;;;13.11;22.46;97975.06;9979504;29;20070;-78
2021/03/07 14:09:36;;;;;;;5.30;3.85;;;;;;;12.82;22.82;97966.97;10038932;24;20062;-78
2021/03/07 14:14:56;;;;;;;6.97;4.22;;;;;;;12.64;22.89;97969.34;9911275;29;20058;-77
2021/03/07 14:20:16;;;;;;;6.30;3.95;;;;;;;12.58;22.68;97957.78;9909556;29;20047;-79
2021/03/07 14:25:37;;;;;;;5.40;3.83;;;;;;;12.47;23.16;97955.69;9916149;29;20087;-81
2021/03/07 14:30:57;;;;;;;4.68;3.72;;;;;;;12.20;23.27;97939.28;11081622;24;20068;-77
2021/03/07 14:36:17;;;;;;;5.80;4.28;;;;;;;11.83;23.94;97939.69;10007639;29;20050;-79
2021/03/07 14:41:36;;;;;;;7.00;4.03;;;;;;;11.36;24.00;97927.47;10000848;29;20049;-80
2021/03/07 14:46:57;;;;;;;4.68;3.58;;;;;;;11.05;24.83;97930.25;10008400;29;20426;-76
2021/03/07 14:52:17;;;;;;;5.93;4.10;;;;;;;10.83;24.76;97926.69;10007276;29;20046;-77
2021/03/07 14:57:37;;;;;;;5.25;3.83;;;;;;;10.78;25.06;97910.94;10007638;29;20057;-79
2021/03/07 15:02:57;;;;;;;4.70;3.75;;;;;;;10.79;25.25;97907.56;10001537;29;20521;-79
2021/03/07 15:08:17;;;;;;;6.05;4.15;;;;;;;10.61;25.52;97903.50;10301561;24;20042;-79
2021/03/07 15:13:38;;;;;;;7.38;4.43;;;;;;;10.48;25.31;97893.56;10038670;29;20053;-80
2021/03/07 15:18:58;;;;;;;4.60;3.72;;;;;;;10.17;25.78;97882.28;10056099;29;20410;-78
2021/03/07 15:24:18;;;;;;;5.28;3.72;;;;;;;9.97;26.17;97876.00;10013309;29;20079;-75
2021/03/07 15:29:38;;;;;;;8.40;4.32;;;;;;;9.77;26.82;97871.75;10000599;29;20042;-75
2021/03/07 15:34:58;;;;;;;4.80;3.97;;;;;;;9.69;26.69;97857.22;9989066;29;20053;-74
2021/03/07 15:40:18;;;;;;;10.98;4.10;;;;;;;9.61;26.98;97849.00;10002114;29;20042;-75
2021/03/07 15:45:37;;;;;;;7.10;4.25;;;;;;;9.35;27.01;97853.38;10010021;29;20053;-75
2021/03/07 15:50:58;;;;;;;8.73;4.35;;;;;;;9.09;27.74;97848.66;10024442;29;20481;-74
2021/03/07 15:56:18;;;;;;;7.20;4.25;;;;;;;8.87;27.55;97831.00;10033303;29;20057;-82
2021/03/07 16:01:38;;;;;;;6.45;4.85;;;;;;;8.62;28.07;97833.25;10027171;29;20042;-76
2021/03/07 16:07:30;;;;;;;7.80;4.00;;;;;;;8.39;28.76;97828.03;10533320;24;21231;31
2021/03/07 16:12:50;;;;;;;7.35;4.43;;;;;;;8.22;28.66;97818.41;10673445;24;20946;-83
2021/03/07 16:18:10;;;;;;;9.25;5.05;;;;;;;8.04;29.02;97817.00;10643134;24;20058;-81
2021/03/07 16:30:06;;;;;;;11.13;8.07;;;;;;;7.57;31.05;97818.13;9930277;29;20412;-80
2021/03/07 16:41:17;;;;;;;11.30;7.57;;;;;;;7.09;30.37;97805.31;10599321;23;20089;-77
2021/03/07 16:46:37;;;;;;;11.75;7.45;;;;;;;6.97;30.34;97809.13;9986388;29;20046;-79
2021/03/07 16:51:57;;;;;;;14.93;8.77;;;;;;;6.81;30.76;97808.53;9959965;29;20448;-79
2021/03/07 16:57:17;;;;;;;15.52;9.68;;;;;;;6.67;30.87;97810.13;9960626;29;20046;-78
2021/03/07 17:02:39;;;;;;;14.02;8.30;;;;;;;6.44;30.97;97799.94;9959606;29;20058;-75
2021/03/07 17:07:59;;;;;;;11.85;8.32;;;;;;;6.31;31.95;97806.50;9946280;29;20053;-80
2021/03/07 17:13:19;;;;;;;13.63;7.32;;;;;;;6.24;32.14;97803.78;9952026;29;20539;-74
2021/03/07 17:18:39;;;;;;;12.18;7.60;;;;;;;6.01;32.12;97809.47;9958182;29;20057;-73
2021/03/07 17:23:58;;;;;;;13.98;8.20;;;;;;;5.76;32.45;97823.22;9945268;29;20050;-74
2021/03/07 17:29:19;;;;;;;18.17;13.77;;;;;;;5.66;33.35;97825.81;9958181;29;20460;-74
2021/03/07 17:34:38;;;;;;;15.90;12.75;;;;;;;5.43;33.61;97831.44;9957973;29;20053;-74
2021/03/07 17:39:58;;;;;;;15.73;12.57;;;;;;;5.18;33.85;97833.34;9958095;29;20149;-74
2021/03/07 17:45:18;;;;;;;15.50;11.05;;;;;;;4.99;34.22;97838.53;9957567;29;20050;-74
2021/03/07 17:50:38;;;;;;;16.13;10.38;;;;;;;4.89;34.73;97847.41;9982978;29;20054;-77
2021/03/07 17:55:58;;;;;;;14.57;10.10;;;;;;;4.69;35.54;97855.88;9945414;29;20114;-75
2021/03/07 18:01:18;;;;;;;14.82;9.10;;;;;;;4.57;36.49;97853.47;9986833;24;20057;-79
2021/03/07 18:06:38;;;;;;;17.80;9.13;;;;;;;4.49;36.21;97863.06;10422100;24;20069;-74
2021/03/07 18:11:58;;;;;;;14.32;9.90;;;;;;;4.38;36.51;97863.41;10034129;29;20049;-83
2021/03/07 18:23:36;;;;;;;27.38;16.77;;;;;;;4.14;39.36;97865.38;10820091;23;20086;-83
2021/03/07 18:29:35;;;;;;;24.17;14.95;;;;;;;4.02;38.56;97867.72;11617616;23;20038;31
2021/03/07 18:34:52;;;;;;;19.45;13.27;;;;;;;3.94;38.63;97871.75;10338070;23;20081;-82
2021/03/07 18:40:23;;;;;;;20.15;13.32;;;;;;;3.91;38.79;97875.59;10225891;24;20089;-83
2021/03/07 18:45:44;;;;;;;20.85;13.27;;;;;;;3.88;39.01;97885.00;10021907;29;20087;-84
2021/03/07 18:51:04;;;;;;;23.13;13.18;;;;;;;3.91;39.48;97873.59;10530108;23;20062;-81
2021/03/07 18:56:24;;;;;;;20.40;13.18;;;;;;;3.91;39.81;97878.38;10038093;29;20029;-85
2021/03/07 19:01:45;;;;;;;17.48;12.40;;;;;;;3.87;39.78;97875.97;10058367;29;20029;-84
2021/03/07 19:07:05;;;;;;;20.70;12.65;;;;;;;3.84;39.53;97885.34;10115363;23;20148;-77
2021/03/07 19:12:32;;;;;;;17.85;12.73;;;;;;;3.80;40.51;97889.75;10027966;29;20056;-76
2021/03/07 19:17:58;;;;;;;18.92;12.05;;;;;;;3.67;40.94;97888.59;10027258;29;20482;-78
2021/03/07 19:23:18;;;;;;;18.23;11.90;;;;;;;3.58;41.25;97902.91;10038651;29;20057;-79
2021/03/07 19:28:39;;;;;;;15.35;10.98;;;;;;;3.53;41.82;97901.00;10025631;29;20060;-78
2021/03/07 19:34:02;;;;;;;16.00;10.35;;;;;;;3.41;41.55;97894.31;10013658;29;20054;-79
2021/03/07 19:39:26;;;;;;;16.92;10.23;;;;;;;3.28;43.31;97900.69;10026217;29;20052;-78
2021/03/07 19:44:52;;;;;;;13.05;8.98;;;;;;;3.19;43.92;97892.16;10027244;29;20073;-78
2021/03/07 19:50:44;;;;;;;14.10;9.30;;;;;;;3.15;43.39;97901.50;10015380;29;20061;-78
2021/03/07 19:56:06;;;;;;;13.38;7.65;;;;;;;3.11;43.81;97898.34;10012789;29;20053;-77
2021/03/07 20:01:31;;;;;;;11.95;7.25;;;;;;;3.03;43.88;97902.34;10025369;29;20493;-77
2021/03/07 20:07:12;;;;;;;10.52;7.03;;;;;;;2.96;44.58;97895.47;10030105;29;20065;-79
2021/03/07 20:12:33;;;;;;;10.18;7.00;;;;;;;2.87;44.03;97904.22;10036469;29;20053;-79
2021/03/07 20:17:53;;;;;;;10.70;6.70;;;;;;;2.77;44.33;97909.47;10048940;29;20045;-76
2021/03/07 20:23:14;;;;;;;11.30;7.63;;;;;;;2.74;45.23;97915.31;10049464;29;20045;-76
2021/03/07 20:28:34;;;;;;;11.70;8.27;;;;;;;2.61;45.24;97909.88;10048898;29;20102;-79
2021/03/07 20:33:56;;;;;;;9.88;7.43;;;;;;;2.56;45.50;97920.50;10048287;29;20109;-76
2021/03/07 20:39:17;;;;;;;11.77;7.93;;;;;;;2.52;47.42;97917.34;10035552;29;20053;-76
2021/03/07 20:44:37;;;;;;;11.10;7.53;;;;;;;2.37;46.29;97919.94;10035113;29;20050;-77
2021/03/07 20:49:58;;;;;;;12.50;8.32;;;;;;;2.30;46.37;97926.81;10035741;29;20049;-77
2021/03/07 20:55:19;;;;;;;14.25;9.38;;;;;;;2.25;46.43;97922.19;10021553;29;20049;-76
2021/03/07 21:00:40;;;;;;;12.38;9.40;;;;;;;2.15;47.13;97929.44;10047200;29;20124;-75
2021/03/07 21:06:00;;;;;;;15.35;11.90;;;;;;;2.10;47.92;97929.53;10034382;29;20413;-76
2021/03/07 21:11:22;;;;;;;15.25;11.88;;;;;;;2.03;47.75;97927.41;10047040;29;20053;-75
2021/03/07 21:16:42;;;;;;;16.30;11.77;;;;;;;1.96;47.87;97932.31;10059682;29;20056;-77
2021/03/07 21:22:03;;;;;;;16.48;11.15;;;;;;;1.90;48.02;97933.69;10057560;29;20500;-75
2021/03/07 21:27:23;;;;;;;12.95;10.07;;;;;;;1.86;48.69;97925.78;10033304;29;20045;-75
2021/03/07 21:32:43;;;;;;;11.10;8.93;;;;;;;1.82;48.48;97941.13;10031478;29;20053;-76
2021/03/07 21:38:03;;;;;;;13.52;9.32;;;;;;;1.76;48.75;97932.97;10029937;29;20076;-76
2021/03/07 21:43:22;;;;;;;11.20;9.07;;;;;;;1.67;49.11;97933.41;10055928;29;20053;-73
2021/03/07 21:48:42;;;;;;;12.35;9.27;;;;;;;1.59;49.44;97935.31;10030286;29;20061;-74
2021/03/07 21:54:03;;;;;;;12.98;9.75;;;;;;;1.49;49.66;97937.75;10045625;29;20446;-74
2021/03/07 21:59:22;;;;;;;14.38;10.20;;;;;;;1.45;49.99;97934.59;10019681;29;20051;-74
2021/03/07 22:04:42;;;;;;;13.45;10.43;;;;;;;1.38;50.22;97930.44;10045463;29;20518;-76
2021/03/07 22:10:03;;;;;;;15.93;11.23;;;;;;;1.31;50.77;97922.81;10044242;29;20474;-75
2021/03/07 22:15:41;;;;;;;15.77;11.30;;;;;;;1.24;51.09;97931.69;10044964;29;20056;-76
2021/03/07 22:21:01;;;;;;;13.85;10.77;;;;;;;1.13;51.29;97924.38;10032406;29;20556;-74
2021/03/07 22:26:21;;;;;;;15.43;11.88;;;;;;;1.08;51.40;97922.47;10044834;29;20042;-74
2021/03/07 22:31:40;;;;;;;16.38;12.32;;;;;;;0.99;51.52;97933.13;10044765;29;20049;-73
2021/03/07 22:37:01;;;;;;;19.70;12.95;;;;;;;0.97;52.12;97930.19;10032019;29;20058;-74
2021/03/07 22:42:21;;;;;;;18.23;12.95;;;;;;;0.91;52.50;97929.53;10032126;29;20128;-74
2021/03/07 22:47:42;;;;;;;23.35;12.52;;;;;;;0.86;53.07;97933.81;10031698;29;20049;-74
2021/03/07 22:53:01;;;;;;;19.50;12.23;;;;;;;0.77;52.56;97921.25;10044660;29;20054;-74
2021/03/07 22:58:22;;;;;;;16.95;12.05;;;;;;;0.70;52.78;97921.84;10044226;29;20451;-74
2021/03/07 23:03:42;;;;;;;17.63;11.35;;;;;;;0.65;53.43;97914.44;10044062;29;20102;-74
2021/03/07 23:09:04;;;;;;;15.52;9.90;;;;;;;0.62;53.50;97915.47;10056921;29;20053;-75
2021/03/07 23:14:24;;;;;;;14.20;10.63;;;;;;;0.56;53.47;97918.31;10018707;29;20496;-74
2021/03/07 23:19:43;;;;;;;14.82;9.98;;;;;;;0.52;53.74;97922.63;10007578;29;20049;-75
2021/03/07 23:25:10;;;;;;;15.13;10.30;;;;;;;0.45;54.59;97915.72;10025299;29;20045;-77
2021/03/07 23:30:34;;;;;;;13.35;9.93;;;;;;;0.40;54.37;97910.34;10025515;29;20046;-76
2021/03/07 23:35:54;;;;;;;13.60;9.00;;;;;;;0.33;54.62;97910.94;10025462;29;20053;-76
2021/03/07 23:41:13;;;;;;;12.98;9.73;;;;;;;0.32;55.21;97907.44;10024660;29;20046;-75
2021/03/07 23:46:33;;;;;;;13.48;9.80;;;;;;;0.24;54.92;97903.81;10037406;29;20390;-76
2021/03/07 23:51:53;;;;;;;13.43;9.35;;;;;;;0.17;55.33;97902.41;10024418;29;20053;-76
2021/03/07 23:57:13;;;;;;;12.30;9.65;;;;;;;0.17;55.91;97894.16;10037297;29;20490;-76
